MFK weather

Matsu Beigan Airport
Beigan Island, Lienchiang County, Taiwan

Public forecast

Using degrees Celsius for public forecast. Weather courtesy of forecast.io.

METAR (pilot weather report)

Closest report is Fuzhou Changle International Airport, 25.2 nm (46.8 km) SW. Retrieved 2019/05/24 04:00 UTC (18 minutes ago):

ZSFZ 240400Z 03007MPS 9999 BKN030 25/18 Q1014 NOSIG

TAF (pilot weather forecast)

Forecast is more than 12 hours old.

Retrieved 2014/06/03 06:00 UTC (5 years ago):

TAF RCMT 030500Z 0306/0324 04010KT 6000 FEW010 BKN032 TEMPO 0306/0312 10005KT 3500 BR FEW008 BKN016 TEMPO 0318/0324 2000 BR SCT005 BKN011